sensor_id;sensor_type;location;lat;lon;timestamp;temperature;humidity
52889;DHT22;41413;52.770;6.892;2024-03-29T00:00:42;8.70;99.90
52889;DHT22;41413;52.770;6.892;2024-03-29T00:03:10;8.60;99.90
52889;DHT22;41413;52.770;6.892;2024-03-29T00:05:36;8.70;99.90
52889;DHT22;41413;52.770;6.892;2024-03-29T00:08:04;8.60;99.90
52889;DHT22;41413;52.770;6.892;2024-03-29T00:10:30;8.60;99.90
52889;DHT22;41413;52.770;6.892;2024-03-29T00:12:55;8.60;99.90
52889;DHT22;41413;52.770;6.892;2024-03-29T00:15:21;8.60;99.90
52889;DHT22;41413;52.770;6.892;2024-03-29T00:17:47;8.60;99.90
52889;DHT22;41413;52.770;6.892;2024-03-29T00:20:13;8.60;99.90
52889;DHT22;41413;52.770;6.892;2024-03-29T00:22:38;8.60;99.90
52889;DHT22;41413;52.770;6.892;2024-03-29T00:25:05;8.60;99.90
52889;DHT22;41413;52.770;6.892;2024-03-29T00:27:31;8.60;99.90
52889;DHT22;41413;52.770;6.892;2024-03-29T00:29:58;8.60;99.90
52889;DHT22;41413;52.770;6.892;2024-03-29T00:32:25;8.50;99.90
52889;DHT22;41413;52.770;6.892;2024-03-29T00:34:52;8.50;99.90
52889;DHT22;41413;52.770;6.892;2024-03-29T00:37:20;8.50;99.90
52889;DHT22;41413;52.770;6.892;2024-03-29T00:39:46;8.50;99.90
52889;DHT22;41413;52.770;6.892;2024-03-29T00:42:12;8.50;99.90
52889;DHT22;41413;52.770;6.892;2024-03-29T00:44:41;8.50;99.90
52889;DHT22;41413;52.770;6.892;2024-03-29T00:47:07;8.50;99.90
52889;DHT22;41413;52.770;6.892;2024-03-29T00:49:34;8.50;99.90
52889;DHT22;41413;52.770;6.892;2024-03-29T00:52:00;8.40;99.90
52889;DHT22;41413;52.770;6.892;2024-03-29T00:54:26;8.50;99.90
52889;DHT22;41413;52.770;6.892;2024-03-29T00:56:52;8.50;99.90
52889;DHT22;41413;52.770;6.892;2024-03-29T00:59:18;8.40;99.90
52889;DHT22;41413;52.770;6.892;2024-03-29T01:01:44;8.40;99.90
52889;DHT22;41413;52.770;6.892;2024-03-29T01:04:11;8.40;99.90
52889;DHT22;41413;52.770;6.892;2024-03-29T01:06:37;8.40;99.90
52889;DHT22;41413;52.770;6.892;2024-03-29T01:09:04;8.40;99.90
52889;DHT22;41413;52.770;6.892;2024-03-29T01:11:30;8.40;99.90
52889;DHT22;41413;52.770;6.892;2024-03-29T01:13:56;8.40;99.90
52889;DHT22;41413;52.770;6.892;2024-03-29T01:16:23;8.30;99.90
52889;DHT22;41413;52.770;6.892;2024-03-29T01:18:49;8.40;99.90
52889;DHT22;41413;52.770;6.892;2024-03-29T01:21:15;8.40;99.90
52889;DHT22;41413;52.770;6.892;2024-03-29T01:23:43;8.40;99.90
52889;DHT22;41413;52.770;6.892;2024-03-29T01:26:09;8.40;99.90
52889;DHT22;41413;52.770;6.892;2024-03-29T01:28:37;8.40;99.90
52889;DHT22;41413;52.770;6.892;2024-03-29T01:31:04;8.40;99.90
52889;DHT22;41413;52.770;6.892;2024-03-29T01:33:30;8.40;99.90
52889;DHT22;41413;52.770;6.892;2024-03-29T01:35:58;8.40;99.90
52889;DHT22;41413;52.770;6.892;2024-03-29T01:38:24;8.40;99.90
52889;DHT22;41413;52.770;6.892;2024-03-29T01:40:50;8.30;99.90
52889;DHT22;41413;52.770;6.892;2024-03-29T01:43:16;8.40;99.90
52889;DHT22;41413;52.770;6.892;2024-03-29T01:45:42;8.40;99.90
52889;DHT22;41413;52.770;6.892;2024-03-29T01:48:09;8.30;99.90
52889;DHT22;41413;52.770;6.892;2024-03-29T01:50:36;8.40;99.90
52889;DHT22;41413;52.770;6.892;2024-03-29T01:53:02;8.40;99.90
52889;DHT22;41413;52.770;6.892;2024-03-29T01:55:29;8.40;99.90
52889;DHT22;41413;52.770;6.892;2024-03-29T01:57:56;8.30;99.90
52889;DHT22;41413;52.770;6.892;2024-03-29T02:00:23;8.40;99.90
52889;DHT22;41413;52.770;6.892;2024-03-29T02:02:49;8.40;99.90
52889;DHT22;41413;52.770;6.892;2024-03-29T02:05:15;8.40;99.90
52889;DHT22;41413;52.770;6.892;2024-03-29T02:07:41;8.50;99.90
52889;DHT22;41413;52.770;6.892;2024-03-29T02:10:10;8.40;99.90
52889;DHT22;41413;52.770;6.892;2024-03-29T02:12:39;8.50;99.90
52889;DHT22;41413;52.770;6.892;2024-03-29T02:15:05;8.40;99.90
52889;DHT22;41413;52.770;6.892;2024-03-29T02:17:32;8.40;99.90
52889;DHT22;41413;52.770;6.892;2024-03-29T02:19:58;8.40;99.90
52889;DHT22;41413;52.770;6.892;2024-03-29T02:22:24;8.40;99.90
52889;DHT22;41413;52.770;6.892;2024-03-29T02:24:51;8.40;99.90
52889;DHT22;41413;52.770;6.892;2024-03-29T02:27:18;8.40;99.90
52889;DHT22;41413;52.770;6.892;2024-03-29T02:29:44;8.40;99.90
52889;DHT22;41413;52.770;6.892;2024-03-29T02:32:09;8.40;99.90
52889;DHT22;41413;52.770;6.892;2024-03-29T02:34:35;8.40;99.90
52889;DHT22;41413;52.770;6.892;2024-03-29T02:37:01;8.30;99.90
52889;DHT22;41413;52.770;6.892;2024-03-29T02:39:27;8.30;99.90
52889;DHT22;41413;52.770;6.892;2024-03-29T02:41:53;8.30;99.90
52889;DHT22;41413;52.770;6.892;2024-03-29T02:44:19;8.40;99.90
52889;DHT22;41413;52.770;6.892;2024-03-29T02:46:45;8.30;99.90
52889;DHT22;41413;52.770;6.892;2024-03-29T02:49:10;8.30;99.90
52889;DHT22;41413;52.770;6.892;2024-03-29T02:51:36;8.30;99.90
52889;DHT22;41413;52.770;6.892;2024-03-29T02:54:02;8.20;99.90
52889;DHT22;41413;52.770;6.892;2024-03-29T02:56:28;8.20;99.90
52889;DHT22;41413;52.770;6.892;2024-03-29T02:58:55;8.20;99.90
52889;DHT22;41413;52.770;6.892;2024-03-29T03:01:21;8.20;99.90
52889;DHT22;41413;52.770;6.892;2024-03-29T03:03:47;8.20;99.90
52889;DHT22;41413;52.770;6.892;2024-03-29T03:06:12;8.10;99.90
52889;DHT22;41413;52.770;6.892;2024-03-29T03:08:38;8.20;99.90
52889;DHT22;41413;52.770;6.892;2024-03-29T03:11:22;8.10;99.90
52889;DHT22;41413;52.770;6.892;2024-03-29T03:13:48;8.20;99.90
52889;DHT22;41413;52.770;6.892;2024-03-29T03:16:14;8.20;99.90
52889;DHT22;41413;52.770;6.892;2024-03-29T03:18:40;8.20;99.90
52889;DHT22;41413;52.770;6.892;2024-03-29T03:21:06;8.20;99.90
52889;DHT22;41413;52.770;6.892;2024-03-29T03:23:31;8.20;99.90
52889;DHT22;41413;52.770;6.892;2024-03-29T03:26:02;8.20;99.90
52889;DHT22;41413;52.770;6.892;2024-03-29T03:28:31;8.10;99.90
52889;DHT22;41413;52.770;6.892;2024-03-29T03:30:57;8.10;99.90
52889;DHT22;41413;52.770;6.892;2024-03-29T03:33:22;8.10;99.90
52889;DHT22;41413;52.770;6.892;2024-03-29T03:35:49;8.20;99.90
52889;DHT22;41413;52.770;6.892;2024-03-29T03:38:15;8.20;99.90
52889;DHT22;41413;52.770;6.892;2024-03-29T03:40:42;8.30;99.90
52889;DHT22;41413;52.770;6.892;2024-03-29T03:43:08;8.20;99.90
52889;DHT22;41413;52.770;6.892;2024-03-29T03:45:38;8.20;99.90
52889;DHT22;41413;52.770;6.892;2024-03-29T03:48:06;8.20;99.90
52889;DHT22;41413;52.770;6.892;2024-03-29T03:50:32;8.10;99.90
52889;DHT22;41413;52.770;6.892;2024-03-29T03:52:58;8.10;99.90
52889;DHT22;41413;52.770;6.892;2024-03-29T03:55:24;8.20;99.90
52889;DHT22;41413;52.770;6.892;2024-03-29T03:57:50;8.30;99.90
52889;DHT22;41413;52.770;6.892;2024-03-29T04:00:19;8.20;99.90
52889;DHT22;41413;52.770;6.892;2024-03-29T04:02:51;8.20;99.90
52889;DHT22;41413;52.770;6.892;2024-03-29T04:05:21;8.10;99.90
52889;DHT22;41413;52.770;6.892;2024-03-29T04:07:47;8.10;99.90
52889;DHT22;41413;52.770;6.892;2024-03-29T04:10:13;8.10;99.90
52889;DHT22;41413;52.770;6.892;2024-03-29T04:12:39;8.20;99.90
52889;DHT22;41413;52.770;6.892;2024-03-29T04:15:05;8.10;99.90
52889;DHT22;41413;52.770;6.892;2024-03-29T04:17:31;8.10;99.90
52889;DHT22;41413;52.770;6.892;2024-03-29T04:19:58;8.00;99.90
52889;DHT22;41413;52.770;6.892;2024-03-29T04:22:24;8.00;99.90
52889;DHT22;41413;52.770;6.892;2024-03-29T04:24:51;8.00;99.90
52889;DHT22;41413;52.770;6.892;2024-03-29T04:27:17;8.00;99.90
52889;DHT22;41413;52.770;6.892;2024-03-29T04:29:42;8.00;99.90
52889;DHT22;41413;52.770;6.892;2024-03-29T04:32:08;8.00;99.90
52889;DHT22;41413;52.770;6.892;2024-03-29T04:34:34;8.10;99.90
52889;DHT22;41413;52.770;6.892;2024-03-29T04:37:00;8.10;99.90
52889;DHT22;41413;52.770;6.892;2024-03-29T04:39:27;8.10;99.90
52889;DHT22;41413;52.770;6.892;2024-03-29T04:41:53;8.20;99.90
52889;DHT22;41413;52.770;6.892;2024-03-29T04:44:27;8.20;99.90
52889;DHT22;41413;52.770;6.892;2024-03-29T04:46:53;8.30;99.90
52889;DHT22;41413;52.770;6.892;2024-03-29T04:49:21;8.30;99.90
52889;DHT22;41413;52.770;6.892;2024-03-29T04:51:49;8.40;99.90
52889;DHT22;41413;52.770;6.892;2024-03-29T04:54:18;8.30;99.90
52889;DHT22;41413;52.770;6.892;2024-03-29T04:56:43;8.40;99.90
52889;DHT22;41413;52.770;6.892;2024-03-29T04:59:09;8.50;99.90
52889;DHT22;41413;52.770;6.892;2024-03-29T05:01:39;8.50;99.90
52889;DHT22;41413;52.770;6.892;2024-03-29T05:04:05;8.50;99.90
52889;DHT22;41413;52.770;6.892;2024-03-29T05:06:31;8.60;99.90
52889;DHT22;41413;52.770;6.892;2024-03-29T05:08:57;8.70;99.90
52889;DHT22;41413;52.770;6.892;2024-03-29T05:11:23;8.80;99.90
52889;DHT22;41413;52.770;6.892;2024-03-29T05:13:48;8.90;99.90
52889;DHT22;41413;52.770;6.892;2024-03-29T05:16:14;8.90;99.90
52889;DHT22;41413;52.770;6.892;2024-03-29T05:18:41;8.90;99.90
52889;DHT22;41413;52.770;6.892;2024-03-29T05:21:06;8.90;99.90
52889;DHT22;41413;52.770;6.892;2024-03-29T05:23:33;8.90;99.90
52889;DHT22;41413;52.770;6.892;2024-03-29T05:25:58;8.90;99.90
52889;DHT22;41413;52.770;6.892;2024-03-29T05:28:24;8.90;99.90
52889;DHT22;41413;52.770;6.892;2024-03-29T05:30:50;8.90;99.90
52889;DHT22;41413;52.770;6.892;2024-03-29T05:33:16;9.00;99.90
52889;DHT22;41413;52.770;6.892;2024-03-29T05:35:42;8.90;99.90
52889;DHT22;41413;52.770;6.892;2024-03-29T05:38:07;9.00;99.90
52889;DHT22;41413;52.770;6.892;2024-03-29T05:40:33;9.00;99.90
52889;DHT22;41413;52.770;6.892;2024-03-29T05:42:59;9.10;99.90
52889;DHT22;41413;52.770;6.892;2024-03-29T05:45:30;9.00;99.90
52889;DHT22;41413;52.770;6.892;2024-03-29T05:47:58;9.00;99.90
52889;DHT22;41413;52.770;6.892;2024-03-29T05:50:25;9.00;99.90
52889;DHT22;41413;52.770;6.892;2024-03-29T05:52:51;9.00;99.90
52889;DHT22;41413;52.770;6.892;2024-03-29T05:55:18;8.90;99.90
52889;DHT22;41413;52.770;6.892;2024-03-29T05:57:44;9.00;99.90
52889;DHT22;41413;52.770;6.892;2024-03-29T06:00:14;9.00;99.90
52889;DHT22;41413;52.770;6.892;2024-03-29T06:02:41;9.00;99.90
52889;DHT22;41413;52.770;6.892;2024-03-29T06:05:08;8.90;99.90
52889;DHT22;41413;52.770;6.892;2024-03-29T06:07:35;8.90;99.90
52889;DHT22;41413;52.770;6.892;2024-03-29T06:10:01;8.90;99.90
52889;DHT22;41413;52.770;6.892;2024-03-29T06:12:31;8.90;99.90
52889;DHT22;41413;52.770;6.892;2024-03-29T06:14:57;8.80;99.90
52889;DHT22;41413;52.770;6.892;2024-03-29T06:17:41;8.70;99.90
52889;DHT22;41413;52.770;6.892;2024-03-29T06:20:07;8.70;99.90
52889;DHT22;41413;52.770;6.892;2024-03-29T06:22:33;8.60;99.90
52889;DHT22;41413;52.770;6.892;2024-03-29T06:24:59;8.60;99.90
52889;DHT22;41413;52.770;6.892;2024-03-29T06:27:33;8.60;99.90
52889;DHT22;41413;52.770;6.892;2024-03-29T06:29:59;8.50;99.90
52889;DHT22;41413;52.770;6.892;2024-03-29T06:32:25;8.50;99.90
52889;DHT22;41413;52.770;6.892;2024-03-29T06:34:50;8.50;99.90
52889;DHT22;41413;52.770;6.892;2024-03-29T06:37:16;8.40;99.90
52889;DHT22;41413;52.770;6.892;2024-03-29T06:39:42;8.30;99.90
52889;DHT22;41413;52.770;6.892;2024-03-29T06:42:09;8.20;99.90
52889;DHT22;41413;52.770;6.892;2024-03-29T06:44:35;8.10;99.90
52889;DHT22;41413;52.770;6.892;2024-03-29T06:47:02;8.00;99.90
52889;DHT22;41413;52.770;6.892;2024-03-29T06:49:28;7.90;99.90
52889;DHT22;41413;52.770;6.892;2024-03-29T06:51:54;7.80;99.90
52889;DHT22;41413;52.770;6.892;2024-03-29T06:54:22;7.70;99.90
52889;DHT22;41413;52.770;6.892;2024-03-29T06:56:55;7.60;99.90
52889;DHT22;41413;52.770;6.892;2024-03-29T06:59:21;7.60;99.90
52889;DHT22;41413;52.770;6.892;2024-03-29T07:01:47;7.50;99.90
52889;DHT22;41413;52.770;6.892;2024-03-29T07:04:21;7.50;99.90
52889;DHT22;41413;52.770;6.892;2024-03-29T07:06:47;7.40;99.90
52889;DHT22;41413;52.770;6.892;2024-03-29T07:09:22;7.50;99.90
52889;DHT22;41413;52.770;6.892;2024-03-29T07:11:49;7.50;99.90
52889;DHT22;41413;52.770;6.892;2024-03-29T07:14:16;7.40;99.90
52889;DHT22;41413;52.770;6.892;2024-03-29T07:16:43;7.50;99.90
52889;DHT22;41413;52.770;6.892;2024-03-29T07:19:09;7.50;99.90
52889;DHT22;41413;52.770;6.892;2024-03-29T07:21:39;7.40;99.90
52889;DHT22;41413;52.770;6.892;2024-03-29T07:24:05;7.40;99.90
52889;DHT22;41413;52.770;6.892;2024-03-29T07:26:32;7.40;99.90
52889;DHT22;41413;52.770;6.892;2024-03-29T07:28:58;7.40;99.90
52889;DHT22;41413;52.770;6.892;2024-03-29T07:31:24;7.40;99.90
52889;DHT22;41413;52.770;6.892;2024-03-29T07:33:49;7.40;99.90
52889;DHT22;41413;52.770;6.892;2024-03-29T07:36:15;7.40;99.90
52889;DHT22;41413;52.770;6.892;2024-03-29T07:38:42;7.40;99.90
52889;DHT22;41413;52.770;6.892;2024-03-29T07:41:09;7.30;99.90
52889;DHT22;41413;52.770;6.892;2024-03-29T07:43:52;7.40;99.90
52889;DHT22;41413;52.770;6.892;2024-03-29T07:46:19;7.40;99.90
52889;DHT22;41413;52.770;6.892;2024-03-29T07:48:45;7.40;99.90
52889;DHT22;41413;52.770;6.892;2024-03-29T07:51:10;7.50;99.90
52889;DHT22;41413;52.770;6.892;2024-03-29T07:53:36;7.60;99.90
52889;DHT22;41413;52.770;6.892;2024-03-29T07:56:02;7.70;99.90
52889;DHT22;41413;52.770;6.892;2024-03-29T07:58:28;7.70;99.90
52889;DHT22;41413;52.770;6.892;2024-03-29T08:00:54;7.70;99.90
52889;DHT22;41413;52.770;6.892;2024-03-29T08:03:19;7.70;99.90
52889;DHT22;41413;52.770;6.892;2024-03-29T08:06:15;7.60;99.90
52889;DHT22;41413;52.770;6.892;2024-03-29T08:08:44;7.50;99.90
52889;DHT22;41413;52.770;6.892;2024-03-29T08:11:10;7.60;99.90
52889;DHT22;41413;52.770;6.892;2024-03-29T08:13:38;7.60;99.90
52889;DHT22;41413;52.770;6.892;2024-03-29T08:16:05;7.60;99.90
52889;DHT22;41413;52.770;6.892;2024-03-29T08:18:32;7.70;99.90
52889;DHT22;41413;52.770;6.892;2024-03-29T08:20:59;7.60;99.90
52889;DHT22;41413;52.770;6.892;2024-03-29T08:23:26;7.60;99.90
52889;DHT22;41413;52.770;6.892;2024-03-29T08:25:52;7.70;99.90
52889;DHT22;41413;52.770;6.892;2024-03-29T08:28:18;7.60;99.90
52889;DHT22;41413;52.770;6.892;2024-03-29T08:30:45;7.70;99.90
52889;DHT22;41413;52.770;6.892;2024-03-29T08:33:10;7.70;99.90
52889;DHT22;41413;52.770;6.892;2024-03-29T08:35:36;7.60;99.90
52889;DHT22;41413;52.770;6.892;2024-03-29T08:38:02;7.60;99.90
52889;DHT22;41413;52.770;6.892;2024-03-29T08:40:29;7.60;99.90
52889;DHT22;41413;52.770;6.892;2024-03-29T08:42:56;7.70;99.90
52889;DHT22;41413;52.770;6.892;2024-03-29T08:45:22;7.70;99.90
52889;DHT22;41413;52.770;6.892;2024-03-29T08:47:48;7.70;99.90
52889;DHT22;41413;52.770;6.892;2024-03-29T08:50:14;7.70;99.90
52889;DHT22;41413;52.770;6.892;2024-03-29T08:52:40;7.70;99.90
52889;DHT22;41413;52.770;6.892;2024-03-29T08:55:06;7.70;99.90
52889;DHT22;41413;52.770;6.892;2024-03-29T08:57:32;7.70;99.90
52889;DHT22;41413;52.770;6.892;2024-03-29T08:59:58;7.70;99.90
52889;DHT22;41413;52.770;6.892;2024-03-29T09:02:24;7.70;99.90
52889;DHT22;41413;52.770;6.892;2024-03-29T09:04:50;7.70;99.90
52889;DHT22;41413;52.770;6.892;2024-03-29T09:07:16;7.70;99.90
52889;DHT22;41413;52.770;6.892;2024-03-29T09:09:42;7.80;99.90
52889;DHT22;41413;52.770;6.892;2024-03-29T09:12:08;7.80;99.90
52889;DHT22;41413;52.770;6.892;2024-03-29T09:14:34;7.90;99.90
52889;DHT22;41413;52.770;6.892;2024-03-29T09:17:00;7.90;99.90
52889;DHT22;41413;52.770;6.892;2024-03-29T09:19:27;7.90;99.90
52889;DHT22;41413;52.770;6.892;2024-03-29T09:21:53;7.90;99.90
52889;DHT22;41413;52.770;6.892;2024-03-29T09:24:19;7.90;99.90
52889;DHT22;41413;52.770;6.892;2024-03-29T09:26:51;8.00;99.90
52889;DHT22;41413;52.770;6.892;2024-03-29T09:29:17;8.00;99.90
52889;DHT22;41413;52.770;6.892;2024-03-29T09:31:45;8.10;99.90
52889;DHT22;41413;52.770;6.892;2024-03-29T09:34:12;8.10;99.90
52889;DHT22;41413;52.770;6.892;2024-03-29T09:36:38;8.10;99.90
52889;DHT22;41413;52.770;6.892;2024-03-29T09:39:04;8.20;99.90
52889;DHT22;41413;52.770;6.892;2024-03-29T09:41:31;8.30;99.90
52889;DHT22;41413;52.770;6.892;2024-03-29T09:44:02;8.30;99.90
52889;DHT22;41413;52.770;6.892;2024-03-29T09:46:28;8.60;99.90
52889;DHT22;41413;52.770;6.892;2024-03-29T09:48:55;9.40;99.90
52889;DHT22;41413;52.770;6.892;2024-03-29T09:51:21;10.30;99.90
52889;DHT22;41413;52.770;6.892;2024-03-29T09:53:47;11.50;99.90
52889;DHT22;41413;52.770;6.892;2024-03-29T09:56:14;12.10;99.90
52889;DHT22;41413;52.770;6.892;2024-03-29T09:58:40;12.30;99.90
52889;DHT22;41413;52.770;6.892;2024-03-29T10:01:08;12.00;99.90
52889;DHT22;41413;52.770;6.892;2024-03-29T10:03:40;12.10;99.90
52889;DHT22;41413;52.770;6.892;2024-03-29T10:06:07;12.60;99.90
52889;DHT22;41413;52.770;6.892;2024-03-29T10:08:34;12.70;99.90
52889;DHT22;41413;52.770;6.892;2024-03-29T10:11:02;12.80;99.90
52889;DHT22;41413;52.770;6.892;2024-03-29T10:13:28;13.00;99.90
52889;DHT22;41413;52.770;6.892;2024-03-29T10:15:55;13.00;99.90
52889;DHT22;41413;52.770;6.892;2024-03-29T10:18:26;13.70;99.90
52889;DHT22;41413;52.770;6.892;2024-03-29T10:21:02;14.30;99.90
52889;DHT22;41413;52.770;6.892;2024-03-29T10:23:29;14.20;99.90
52889;DHT22;41413;52.770;6.892;2024-03-29T10:25:55;14.00;99.90
52889;DHT22;41413;52.770;6.892;2024-03-29T10:28:22;14.50;99.90
52889;DHT22;41413;52.770;6.892;2024-03-29T10:30:49;14.00;99.90
52889;DHT22;41413;52.770;6.892;2024-03-29T10:33:16;13.90;99.90
52889;DHT22;41413;52.770;6.892;2024-03-29T10:35:44;13.30;99.90
52889;DHT22;41413;52.770;6.892;2024-03-29T10:38:11;14.00;99.90
52889;DHT22;41413;52.770;6.892;2024-03-29T10:40:38;13.50;99.90
52889;DHT22;41413;52.770;6.892;2024-03-29T10:43:11;12.90;99.90
52889;DHT22;41413;52.770;6.892;2024-03-29T10:45:42;12.60;99.90
52889;DHT22;41413;52.770;6.892;2024-03-29T10:48:09;12.20;99.90
52889;DHT22;41413;52.770;6.892;2024-03-29T10:50:36;11.90;99.90
52889;DHT22;41413;52.770;6.892;2024-03-29T10:53:03;11.80;99.90
52889;DHT22;41413;52.770;6.892;2024-03-29T10:55:36;11.80;99.90
52889;DHT22;41413;52.770;6.892;2024-03-29T10:58:04;12.60;99.90
52889;DHT22;41413;52.770;6.892;2024-03-29T11:00:34;12.50;99.90
52889;DHT22;41413;52.770;6.892;2024-03-29T11:03:28;12.20;99.90
52889;DHT22;41413;52.770;6.892;2024-03-29T11:06:02;12.30;99.90
52889;DHT22;41413;52.770;6.892;2024-03-29T11:08:33;12.60;99.90
52889;DHT22;41413;52.770;6.892;2024-03-29T11:11:02;12.30;99.90
52889;DHT22;41413;52.770;6.892;2024-03-29T11:14:02;12.80;99.90
52889;DHT22;41413;52.770;6.892;2024-03-29T11:16:29;13.50;99.90
52889;DHT22;41413;52.770;6.892;2024-03-29T11:18:55;13.50;99.90
52889;DHT22;41413;52.770;6.892;2024-03-29T11:21:22;13.60;99.90
52889;DHT22;41413;52.770;6.892;2024-03-29T11:23:51;14.00;99.90
52889;DHT22;41413;52.770;6.892;2024-03-29T11:26:18;14.30;99.90
52889;DHT22;41413;52.770;6.892;2024-03-29T11:28:52;13.80;99.90
52889;DHT22;41413;52.770;6.892;2024-03-29T11:31:21;14.10;99.90
52889;DHT22;41413;52.770;6.892;2024-03-29T11:33:48;13.90;99.90
52889;DHT22;41413;52.770;6.892;2024-03-29T11:36:23;13.50;99.90
52889;DHT22;41413;52.770;6.892;2024-03-29T11:38:52;13.30;99.90
52889;DHT22;41413;52.770;6.892;2024-03-29T11:41:20;13.20;99.90
52889;DHT22;41413;52.770;6.892;2024-03-29T11:43:52;13.00;99.90
52889;DHT22;41413;52.770;6.892;2024-03-29T11:46:19;13.00;99.90
52889;DHT22;41413;52.770;6.892;2024-03-29T11:48:45;12.70;99.90
52889;DHT22;41413;52.770;6.892;2024-03-29T11:51:13;12.90;99.90
52889;DHT22;41413;52.770;6.892;2024-03-29T11:53:43;13.20;99.90
52889;DHT22;41413;52.770;6.892;2024-03-29T11:56:09;13.20;99.90
52889;DHT22;41413;52.770;6.892;2024-03-29T11:58:37;13.50;99.90
52889;DHT22;41413;52.770;6.892;2024-03-29T12:01:03;13.70;99.90
52889;DHT22;41413;52.770;6.892;2024-03-29T12:03:31;13.70;99.90
52889;DHT22;41413;52.770;6.892;2024-03-29T12:05:59;13.60;99.90
52889;DHT22;41413;52.770;6.892;2024-03-29T12:08:34;13.50;99.90
52889;DHT22;41413;52.770;6.892;2024-03-29T12:11:02;13.40;99.90
52889;DHT22;41413;52.770;6.892;2024-03-29T12:13:28;13.40;99.90
52889;DHT22;41413;52.770;6.892;2024-03-29T12:15:55;13.60;99.90
52889;DHT22;41413;52.770;6.892;2024-03-29T12:18:22;13.80;99.90
52889;DHT22;41413;52.770;6.892;2024-03-29T12:20:49;13.80;99.90
52889;DHT22;41413;52.770;6.892;2024-03-29T12:23:17;13.70;99.90
52889;DHT22;41413;52.770;6.892;2024-03-29T12:25:43;13.50;99.90
52889;DHT22;41413;52.770;6.892;2024-03-29T12:28:10;13.20;99.90
52889;DHT22;41413;52.770;6.892;2024-03-29T12:30:37;13.30;99.90
52889;DHT22;41413;52.770;6.892;2024-03-29T12:33:05;13.50;99.90
52889;DHT22;41413;52.770;6.892;2024-03-29T12:35:37;13.50;99.90
52889;DHT22;41413;52.770;6.892;2024-03-29T12:38:04;13.50;99.90
52889;DHT22;41413;52.770;6.892;2024-03-29T12:40:31;13.60;99.90
52889;DHT22;41413;52.770;6.892;2024-03-29T12:43:06;13.80;99.90
52889;DHT22;41413;52.770;6.892;2024-03-29T12:45:39;13.60;99.90
52889;DHT22;41413;52.770;6.892;2024-03-29T12:48:21;13.50;99.90
52889;DHT22;41413;52.770;6.892;2024-03-29T12:50:50;13.40;99.90
52889;DHT22;41413;52.770;6.892;2024-03-29T12:53:17;13.10;99.90
52889;DHT22;41413;52.770;6.892;2024-03-29T12:55:46;13.00;99.90
52889;DHT22;41413;52.770;6.892;2024-03-29T12:58:13;13.00;99.90
52889;DHT22;41413;52.770;6.892;2024-03-29T13:00:39;13.00;99.90
52889;DHT22;41413;52.770;6.892;2024-03-29T13:03:06;12.90;99.90
52889;DHT22;41413;52.770;6.892;2024-03-29T13:05:34;12.80;99.90
52889;DHT22;41413;52.770;6.892;2024-03-29T13:08:13;12.70;99.90
52889;DHT22;41413;52.770;6.892;2024-03-29T13:10:41;12.80;99.90
52889;DHT22;41413;52.770;6.892;2024-03-29T13:13:08;13.00;99.90
52889;DHT22;41413;52.770;6.892;2024-03-29T13:15:35;13.10;99.90
52889;DHT22;41413;52.770;6.892;2024-03-29T13:18:01;13.20;99.90
52889;DHT22;41413;52.770;6.892;2024-03-29T13:20:30;13.20;99.90
52889;DHT22;41413;52.770;6.892;2024-03-29T13:22:56;13.20;99.90
52889;DHT22;41413;52.770;6.892;2024-03-29T13:25:23;13.10;99.90
52889;DHT22;41413;52.770;6.892;2024-03-29T13:27:53;13.30;99.90
52889;DHT22;41413;52.770;6.892;2024-03-29T13:30:24;13.40;99.90
52889;DHT22;41413;52.770;6.892;2024-03-29T13:32:51;13.50;99.90
52889;DHT22;41413;52.770;6.892;2024-03-29T13:35:17;13.70;99.90
52889;DHT22;41413;52.770;6.892;2024-03-29T13:37:47;13.90;99.90
52889;DHT22;41413;52.770;6.892;2024-03-29T13:40:16;14.00;99.90
52889;DHT22;41413;52.770;6.892;2024-03-29T13:42:43;14.00;99.90
52889;DHT22;41413;52.770;6.892;2024-03-29T13:45:09;14.00;99.90
52889;DHT22;41413;52.770;6.892;2024-03-29T13:47:43;14.00;99.90
52889;DHT22;41413;52.770;6.892;2024-03-29T13:50:10;14.00;99.90
52889;DHT22;41413;52.770;6.892;2024-03-29T13:52:37;14.10;99.90
52889;DHT22;41413;52.770;6.892;2024-03-29T13:55:04;14.20;99.90
52889;DHT22;41413;52.770;6.892;2024-03-29T13:57:30;14.20;99.90
52889;DHT22;41413;52.770;6.892;2024-03-29T13:59:57;14.10;99.90
52889;DHT22;41413;52.770;6.892;2024-03-29T14:02:24;14.00;99.90
52889;DHT22;41413;52.770;6.892;2024-03-29T14:04:52;14.00;99.90
52889;DHT22;41413;52.770;6.892;2024-03-29T14:07:17;13.90;99.90
52889;DHT22;41413;52.770;6.892;2024-03-29T14:09:44;14.20;99.90
52889;DHT22;41413;52.770;6.892;2024-03-29T14:12:11;14.20;99.90
52889;DHT22;41413;52.770;6.892;2024-03-29T14:14:37;14.30;99.90
52889;DHT22;41413;52.770;6.892;2024-03-29T14:17:03;14.40;99.90
52889;DHT22;41413;52.770;6.892;2024-03-29T14:19:33;14.40;99.90
52889;DHT22;41413;52.770;6.892;2024-03-29T14:22:00;14.50;99.90
52889;DHT22;41413;52.770;6.892;2024-03-29T14:24:26;14.50;99.90
52889;DHT22;41413;52.770;6.892;2024-03-29T14:26:52;14.50;99.90
52889;DHT22;41413;52.770;6.892;2024-03-29T14:29:18;14.50;99.90
52889;DHT22;41413;52.770;6.892;2024-03-29T14:31:50;14.70;99.90
52889;DHT22;41413;52.770;6.892;2024-03-29T14:34:17;14.70;99.90
52889;DHT22;41413;52.770;6.892;2024-03-29T14:36:43;14.60;99.90
52889;DHT22;41413;52.770;6.892;2024-03-29T14:39:10;14.60;99.90
52889;DHT22;41413;52.770;6.892;2024-03-29T14:41:39;14.70;99.90
52889;DHT22;41413;52.770;6.892;2024-03-29T14:44:06;14.70;99.90
52889;DHT22;41413;52.770;6.892;2024-03-29T14:46:33;14.80;99.90
52889;DHT22;41413;52.770;6.892;2024-03-29T14:49:00;14.70;99.90
52889;DHT22;41413;52.770;6.892;2024-03-29T14:51:26;14.50;99.90
52889;DHT22;41413;52.770;6.892;2024-03-29T14:53:53;14.40;99.90
52889;DHT22;41413;52.770;6.892;2024-03-29T14:56:19;14.20;99.90
52889;DHT22;41413;52.770;6.892;2024-03-29T14:58:45;14.20;99.90
52889;DHT22;41413;52.770;6.892;2024-03-29T15:01:12;14.10;99.90
52889;DHT22;41413;52.770;6.892;2024-03-29T15:03:38;14.20;99.90
52889;DHT22;41413;52.770;6.892;2024-03-29T15:06:04;14.20;99.90
52889;DHT22;41413;52.770;6.892;2024-03-29T15:08:31;14.20;99.90
52889;DHT22;41413;52.770;6.892;2024-03-29T15:10:57;14.20;99.90
52889;DHT22;41413;52.770;6.892;2024-03-29T15:13:23;14.20;99.90
52889;DHT22;41413;52.770;6.892;2024-03-29T15:15:56;14.20;99.90
52889;DHT22;41413;52.770;6.892;2024-03-29T15:18:22;14.20;99.90
52889;DHT22;41413;52.770;6.892;2024-03-29T15:20:58;14.10;99.90
52889;DHT22;41413;52.770;6.892;2024-03-29T15:23:25;14.20;99.90
52889;DHT22;41413;52.770;6.892;2024-03-29T15:25:53;14.10;99.90
52889;DHT22;41413;52.770;6.892;2024-03-29T15:28:20;14.10;99.90
52889;DHT22;41413;52.770;6.892;2024-03-29T15:31:12;14.20;99.90
52889;DHT22;41413;52.770;6.892;2024-03-29T15:33:39;14.20;99.90
52889;DHT22;41413;52.770;6.892;2024-03-29T15:36:05;14.20;99.90
52889;DHT22;41413;52.770;6.892;2024-03-29T15:38:33;14.20;99.90
52889;DHT22;41413;52.770;6.892;2024-03-29T15:40:59;14.20;99.90